FDX13 KIAH-KLAX
Flight info
| Callsign | FDX13 |
|---|---|
| Flight time | N/A |
| Altitude | 32000 |
| Route | SEALY T220 MARCS T466 JCT V222 SFL V560 EWM V94 DMN Q180 BXK J4 TNP |
| Aircraft | B737/M-VGDW/C |
Departure
| Time | 2026-05-01 10:22 |
|---|---|
| Airport | George Bush Intercontinental Airport (KIAH) |
Arrival
| Time | N/A |
|---|---|
| Airport | Los Angeles International Airport (KLAX) |
| Time | Latitude | Longitude | Altitude | Speed | Heading |
|---|---|---|---|---|---|
| 2026-05-01 10:10 | 29.98810 | -95.34061 | 99 ft | 0 kts | 194° |
| 2026-05-01 10:14 | 29.98823 | -95.34057 | 99 ft | 2 kts | 193° |
| 2026-05-01 10:14 | 29.98839 | -95.34053 | 98 ft | 2 kts | 193° |
| 2026-05-01 10:14 | 29.98854 | -95.34049 | 98 ft | 2 kts | 161° |
| 2026-05-01 10:15 | 29.98867 | -95.34059 | 99 ft | 2 kts | 105° |
| 2026-05-01 10:15 | 29.98867 | -95.34074 | 98 ft | 2 kts | 59° |
| 2026-05-01 10:15 | 29.98859 | -95.34086 | 99 ft | 2 kts | 19° |
| 2026-05-01 10:16 | 29.98850 | -95.34089 | 100 ft | 0 kts | 15° |
| 2026-05-01 10:16 | 29.98873 | -95.34080 | 100 ft | 3 kts | 22° |
| 2026-05-01 10:17 | 29.98897 | -95.34062 | 99 ft | 5 kts | 32° |
| 2026-05-01 10:17 | 29.98996 | -95.34042 | 100 ft | 9 kts | 358° |
| 2026-05-01 10:17 | 29.99060 | -95.34035 | 99 ft | 9 kts | 25° |
| 2026-05-01 10:18 | 29.99090 | -95.33870 | 100 ft | 13 kts | 90° |
| 2026-05-01 10:18 | 29.99090 | -95.33754 | 100 ft | 16 kts | 89° |
| 2026-05-01 10:18 | 29.99091 | -95.33622 | 101 ft | 18 kts | 87° |
| 2026-05-01 10:19 | 29.99092 | -95.33474 | 101 ft | 19 kts | 95° |
| 2026-05-01 10:19 | 29.99092 | -95.33329 | 102 ft | 18 kts | 89° |
| 2026-05-01 10:19 | 29.99091 | -95.33189 | 102 ft | 17 kts | 89° |
| 2026-05-01 10:20 | 29.99091 | -95.32935 | 103 ft | 15 kts | 91° |
| 2026-05-01 10:20 | 29.99091 | -95.32817 | 103 ft | 14 kts | 89° |
| 2026-05-01 10:20 | 29.99091 | -95.32704 | 103 ft | 14 kts | 89° |
| 2026-05-01 10:20 | 29.99093 | -95.32597 | 104 ft | 13 kts | 81° |
| 2026-05-01 10:21 | 29.99149 | -95.32542 | 104 ft | 10 kts | 8° |
| 2026-05-01 10:21 | 29.99270 | -95.32539 | 103 ft | 9 kts | 2° |
| 2026-05-01 10:21 | 29.99329 | -95.32564 | 102 ft | 9 kts | 311° |
| 2026-05-01 10:22 | 29.99352 | -95.32890 | 103 ft | 74 kts | 272° |
| 2026-05-01 10:22 | 29.99182 | -95.35050 | 885 ft | 162 kts | 254° |
| 2026-05-01 10:23 | 29.98864 | -95.36393 | 1607 ft | 177 kts | 248° |
| 2026-05-01 10:23 | 29.97814 | -95.39205 | 2489 ft | 230 kts | 245° |
| 2026-05-01 10:23 | 29.97305 | -95.41017 | 3418 ft | 233 kts | 248° |
| 2026-05-01 10:24 | 29.96399 | -95.44831 | 4708 ft | 283 kts | 253° |
| 2026-05-01 10:24 | 29.96329 | -95.48604 | 6874 ft | 273 kts | 268° |
| 2026-05-01 10:25 | 29.96539 | -95.53149 | 8901 ft | 288 kts | 270° |
| 2026-05-01 10:25 | 29.96825 | -95.57820 | 10687 ft | 299 kts | 275° |
| 2026-05-01 10:26 | 29.97305 | -95.61040 | 11341 ft | 317 kts | 277° |
| 2026-05-01 10:26 | 29.97502 | -95.62758 | 11592 ft | 321 kts | 269° |
| 2026-05-01 10:26 | 29.96664 | -95.67753 | 13074 ft | 322 kts | 244° |
| 2026-05-01 10:27 | 29.94373 | -95.72195 | 14561 ft | 325 kts | 239° |
| 2026-05-01 10:27 | 29.92399 | -95.76935 | 15917 ft | 331 kts | 247° |
| 2026-05-01 10:28 | 29.91483 | -95.79384 | 16599 ft | 333 kts | 245° |
| 2026-05-01 10:28 | 29.89482 | -95.84252 | 17960 ft | 338 kts | 245° |
| 2026-05-01 10:28 | 29.88505 | -95.86685 | 18569 ft | 340 kts | 246° |
| 2026-05-01 10:29 | 29.86517 | -95.91659 | 19697 ft | 343 kts | 245° |
| 2026-05-01 10:29 | 29.85654 | -95.94225 | 20262 ft | 345 kts | 255° |
| 2026-05-01 10:30 | 29.85467 | -95.99778 | 21396 ft | 354 kts | 277° |
| 2026-05-01 10:30 | 29.87203 | -96.05142 | 22489 ft | 365 kts | 290° |
| 2026-05-01 10:31 | 29.89190 | -96.10528 | 23506 ft | 366 kts | 283° |
| 2026-05-01 10:31 | 29.90334 | -96.16252 | 24306 ft | 369 kts | 278° |
| 2026-05-01 10:32 | 29.91626 | -96.21978 | 25146 ft | 375 kts | 282° |
| 2026-05-01 10:32 | 29.92304 | -96.24884 | 25592 ft | 376 kts | 281° |
| 2026-05-01 10:32 | 29.93574 | -96.30758 | 26547 ft | 377 kts | 281° |
| 2026-05-01 10:33 | 29.94879 | -96.36560 | 27823 ft | 370 kts | 281° |
| 2026-05-01 10:33 | 29.96137 | -96.42267 | 29052 ft | 365 kts | 279° |
| 2026-05-01 10:34 | 29.96755 | -96.45067 | 29608 ft | 364 kts | 279° |
| 2026-05-01 10:34 | 29.97382 | -96.47889 | 30065 ft | 363 kts | 279° |
| 2026-05-01 10:34 | 29.98006 | -96.50716 | 30449 ft | 364 kts | 279° |
| 2026-05-01 10:35 | 29.99189 | -96.56373 | 31322 ft | 359 kts | 273° |
| 2026-05-01 10:35 | 29.99293 | -96.59229 | 31733 ft | 355 kts | 264° |
| 2026-05-01 10:35 | 29.98603 | -96.64984 | 31824 ft | 368 kts | 259° |
| 2026-05-01 10:36 | 29.97858 | -96.73817 | 31887 ft | 371 kts | 262° |
| 2026-05-01 10:37 | 29.97304 | -96.79737 | 31904 ft | 371 kts | 262° |
| 2026-05-01 10:37 | 29.96570 | -96.88598 | 31932 ft | 370 kts | 262° |
| 2026-05-01 10:38 | 29.96064 | -96.94519 | 31939 ft | 370 kts | 262° |
| 2026-05-01 10:38 | 29.95567 | -97.00411 | 31949 ft | 370 kts | 262° |
| 2026-05-01 10:39 | 29.95062 | -97.06320 | 31943 ft | 370 kts | 262° |
| 2026-05-01 10:39 | 29.94555 | -97.12237 | 31935 ft | 370 kts | 262° |
| 2026-05-01 10:40 | 29.94045 | -97.18147 | 31944 ft | 371 kts | 262° |
| 2026-05-01 10:40 | 29.93540 | -97.23977 | 31936 ft | 370 kts | 262° |
| 2026-05-01 10:41 | 29.93025 | -97.29887 | 31952 ft | 370 kts | 262° |
| 2026-05-01 10:42 | 29.92249 | -97.38743 | 31955 ft | 370 kts | 262° |
| 2026-05-01 10:42 | 29.91780 | -97.44618 | 31955 ft | 371 kts | 264° |
| 2026-05-01 10:43 | 29.91509 | -97.50560 | 31955 ft | 371 kts | 264° |
| 2026-05-01 10:43 | 29.91223 | -97.56487 | 31961 ft | 370 kts | 264° |
| 2026-05-01 10:44 | 29.90939 | -97.62459 | 31954 ft | 380 kts | 265° |
| 2026-05-01 10:44 | 29.90646 | -97.68533 | 31959 ft | 377 kts | 265° |
| 2026-05-01 10:45 | 29.90352 | -97.74537 | 31963 ft | 377 kts | 264° |
| 2026-05-01 10:45 | 29.90056 | -97.80560 | 31963 ft | 376 kts | 264° |
| 2026-05-01 10:46 | 29.89932 | -97.86602 | 31971 ft | 379 kts | 274° |
| 2026-05-01 10:46 | 29.91500 | -97.92401 | 31978 ft | 387 kts | 291° |
| 2026-05-01 10:47 | 29.93946 | -97.97937 | 31978 ft | 384 kts | 289° |
| 2026-05-01 10:47 | 29.95822 | -98.03685 | 31967 ft | 383 kts | 285° |
| 2026-05-01 10:48 | 29.97910 | -98.09328 | 31960 ft | 385 kts | 289° |
| 2026-05-01 10:48 | 30.00028 | -98.15000 | 31949 ft | 384 kts | 288° |
| 2026-05-01 10:49 | 30.02112 | -98.20579 | 31944 ft | 385 kts | 288° |
| 2026-05-01 10:49 | 30.04234 | -98.26246 | 31941 ft | 384 kts | 288° |
| 2026-05-01 10:50 | 30.06334 | -98.31887 | 31939 ft | 384 kts | 288° |
| 2026-05-01 10:50 | 30.08451 | -98.37567 | 31917 ft | 388 kts | 288° |
| 2026-05-01 10:51 | 30.10577 | -98.43285 | 31918 ft | 386 kts | 288° |
| 2026-05-01 10:51 | 30.12681 | -98.48953 | 31928 ft | 386 kts | 288° |
| 2026-05-01 10:52 | 30.14833 | -98.54768 | 31919 ft | 395 kts | 287° |
| 2026-05-01 10:52 | 30.16994 | -98.60595 | 31913 ft | 393 kts | 287° |
| 2026-05-01 10:53 | 30.19134 | -98.66396 | 31917 ft | 393 kts | 287° |
| 2026-05-01 10:53 | 30.21277 | -98.72212 | 31940 ft | 392 kts | 286° |
| 2026-05-01 10:54 | 30.23302 | -98.77934 | 31933 ft | 385 kts | 285° |
| 2026-05-01 10:54 | 30.25347 | -98.83660 | 31942 ft | 385 kts | 286° |
| 2026-05-01 10:55 | 30.27383 | -98.89382 | 31941 ft | 384 kts | 285° |
| 2026-05-01 10:55 | 30.29405 | -98.95074 | 31946 ft | 384 kts | 285° |
| 2026-05-01 10:56 | 30.31443 | -99.00818 | 31943 ft | 385 kts | 285° |
| 2026-05-01 10:56 | 30.33462 | -99.06520 | 31945 ft | 385 kts | 285° |
| 2026-05-01 10:57 | 30.35488 | -99.12246 | 31931 ft | 382 kts | 285° |
| 2026-05-01 10:57 | 30.37502 | -99.17956 | 31938 ft | 382 kts | 285° |
| 2026-05-01 10:58 | 30.39513 | -99.23659 | 31937 ft | 382 kts | 285° |
| 2026-05-01 10:58 | 30.41506 | -99.29325 | 31923 ft | 382 kts | 285° |
| 2026-05-01 10:59 | 30.43512 | -99.35034 | 31921 ft | 382 kts | 285° |
| 2026-05-01 10:59 | 30.45514 | -99.40744 | 31923 ft | 382 kts | 285° |
| 2026-05-01 11:00 | 30.47511 | -99.46443 | 31957 ft | 382 kts | 284° |
| 2026-05-01 11:00 | 30.49506 | -99.52148 | 31965 ft | 383 kts | 284° |
| 2026-05-01 11:01 | 30.51503 | -99.57870 | 31977 ft | 383 kts | 284° |
| 2026-05-01 11:01 | 30.53503 | -99.63607 | 31997 ft | 383 kts | 284° |
| 2026-05-01 11:02 | 30.55485 | -99.69304 | 32008 ft | 383 kts | 284° |
| 2026-05-01 11:02 | 30.57476 | -99.75035 | 32003 ft | 383 kts | 284° |
| 2026-05-01 11:03 | 30.59460 | -99.80775 | 32006 ft | 382 kts | 282° |
| 2026-05-01 11:03 | 30.60130 | -99.83719 | 32034 ft | 375 kts | 271° |
| 2026-05-01 11:03 | 30.60454 | -99.86696 | 31996 ft | 376 kts | 269° |
| 2026-05-01 11:04 | 30.61143 | -99.92718 | 31978 ft | 377 kts | 272° |
| 2026-05-01 11:04 | 30.61922 | -99.98740 | 31957 ft | 376 kts | 271° |
| 2026-05-01 11:05 | 30.62644 | -100.04768 | 31934 ft | 377 kts | 271° |
| 2026-05-01 11:05 | 30.63393 | -100.10803 | 31913 ft | 377 kts | 271° |
| 2026-05-01 11:06 | 30.64125 | -100.16828 | 31897 ft | 377 kts | 271° |
| 2026-05-01 11:06 | 30.64855 | -100.22817 | 31894 ft | 375 kts | 270° |
| 2026-05-01 11:07 | 30.65937 | -100.31773 | 31892 ft | 372 kts | 270° |
| 2026-05-01 11:07 | 30.66657 | -100.37743 | 31901 ft | 372 kts | 270° |
| 2026-05-01 11:08 | 30.67372 | -100.43707 | 31901 ft | 372 kts | 270° |
| 2026-05-01 11:09 | 30.68435 | -100.52613 | 31908 ft | 372 kts | 270° |
| 2026-05-01 11:09 | 30.69144 | -100.58584 | 31917 ft | 372 kts | 271° |
| 2026-05-01 11:10 | 30.70188 | -100.67421 | 31908 ft | 368 kts | 270° |
| 2026-05-01 11:10 | 30.70883 | -100.73324 | 31914 ft | 368 kts | 270° |
| 2026-05-01 11:11 | 30.71575 | -100.79235 | 31915 ft | 368 kts | 270° |
| 2026-05-01 11:11 | 30.72259 | -100.85106 | 31918 ft | 368 kts | 270° |
| 2026-05-01 11:12 | 30.72945 | -100.91008 | 31969 ft | 368 kts | 270° |
| 2026-05-01 11:12 | 30.73628 | -100.96912 | 31992 ft | 368 kts | 270° |
| 2026-05-01 11:13 | 30.74309 | -101.02822 | 32010 ft | 368 kts | 270° |
| 2026-05-01 11:13 | 30.74982 | -101.08688 | 32028 ft | 368 kts | 270° |
| 2026-05-01 11:14 | 30.75656 | -101.14584 | 32031 ft | 367 kts | 270° |
| 2026-05-01 11:14 | 30.76327 | -101.20477 | 32034 ft | 365 kts | 270° |
| 2026-05-01 11:15 | 30.76879 | -101.25348 | 31930 ft | 365 kts | 270° |
| 2026-05-01 11:15 | 30.77647 | -101.32154 | 31935 ft | 364 kts | 270° |
| 2026-05-01 11:16 | 30.78196 | -101.37034 | 31938 ft | 363 kts | 270° |
| 2026-05-01 11:16 | 30.78849 | -101.42869 | 31934 ft | 363 kts | 270° |
| 2026-05-01 11:17 | 30.79500 | -101.48703 | 31937 ft | 363 kts | 270° |
| 2026-05-01 11:17 | 30.80146 | -101.54505 | 31935 ft | 363 kts | 270° |
| 2026-05-01 11:18 | 30.80792 | -101.60340 | 31935 ft | 363 kts | 270° |
| 2026-05-01 11:18 | 30.81435 | -101.66175 | 31932 ft | 363 kts | 270° |
| 2026-05-01 11:19 | 30.82073 | -101.71970 | 31930 ft | 360 kts | 270° |
| 2026-05-01 11:19 | 30.82703 | -101.77750 | 31929 ft | 360 kts | 270° |
| 2026-05-01 11:20 | 30.83335 | -101.83544 | 31926 ft | 360 kts | 270° |
| 2026-05-01 11:20 | 30.83962 | -101.89324 | 31925 ft | 360 kts | 270° |
| 2026-05-01 11:21 | 30.84586 | -101.95096 | 31928 ft | 360 kts | 270° |
| 2026-05-01 11:21 | 30.85206 | -102.00875 | 31916 ft | 359 kts | 270° |
| 2026-05-01 11:22 | 30.85822 | -102.06623 | 31917 ft | 359 kts | 270° |
| 2026-05-01 11:22 | 30.86437 | -102.12396 | 31919 ft | 359 kts | 270° |
| 2026-05-01 11:23 | 30.87050 | -102.18173 | 31924 ft | 359 kts | 270° |
| 2026-05-01 11:23 | 30.87657 | -102.23916 | 31913 ft | 359 kts | 270° |
| 2026-05-01 11:24 | 30.88265 | -102.29684 | 31918 ft | 359 kts | 270° |
| 2026-05-01 11:25 | 30.89172 | -102.38354 | 31909 ft | 359 kts | 270° |
| 2026-05-01 11:25 | 30.90071 | -102.47000 | 31908 ft | 358 kts | 269° |
| 2026-05-01 11:26 | 30.90959 | -102.55594 | 31931 ft | 358 kts | 269° |
| 2026-05-01 11:27 | 30.91543 | -102.61282 | 31936 ft | 358 kts | 269° |
| 2026-05-01 11:27 | 30.92132 | -102.67038 | 31951 ft | 358 kts | 269° |
| 2026-05-01 11:28 | 30.92714 | -102.72754 | 31969 ft | 357 kts | 269° |
| 2026-05-01 11:28 | 30.93296 | -102.78493 | 31980 ft | 357 kts | 269° |
| 2026-05-01 11:29 | 30.93876 | -102.84239 | 31877 ft | 357 kts | 269° |
| 2026-05-01 11:29 | 30.94165 | -102.87108 | 31877 ft | 356 kts | 269° |
| 2026-05-01 11:30 | 30.95026 | -102.95696 | 31874 ft | 357 kts | 270° |
| 2026-05-01 11:30 | 30.96617 | -103.01315 | 31868 ft | 373 kts | 285° |
| 2026-05-01 11:31 | 30.98787 | -103.06713 | 31865 ft | 368 kts | 283° |
| 2026-05-01 11:31 | 31.00859 | -103.12172 | 31864 ft | 368 kts | 284° |
| 2026-05-01 11:32 | 31.02981 | -103.17607 | 31874 ft | 367 kts | 284° |
| 2026-05-01 11:32 | 31.05073 | -103.23052 | 31871 ft | 367 kts | 284° |
| 2026-05-01 11:33 | 31.07161 | -103.28459 | 31872 ft | 367 kts | 284° |
| 2026-05-01 11:33 | 31.09252 | -103.33897 | 31884 ft | 367 kts | 284° |
| 2026-05-01 11:34 | 31.11344 | -103.39344 | 31902 ft | 368 kts | 285° |
| 2026-05-01 11:34 | 31.13439 | -103.44799 | 31911 ft | 367 kts | 285° |
| 2026-05-01 11:35 | 31.15172 | -103.49328 | 31922 ft | 367 kts | 285° |
| 2026-05-01 11:35 | 31.17614 | -103.55711 | 31926 ft | 370 kts | 286° |
| 2026-05-01 11:36 | 31.19714 | -103.61207 | 31926 ft | 369 kts | 285° |
| 2026-05-01 11:36 | 31.21804 | -103.66694 | 31923 ft | 369 kts | 285° |
| 2026-05-01 11:37 | 31.23894 | -103.72182 | 31917 ft | 369 kts | 285° |
| 2026-05-01 11:37 | 31.25970 | -103.77644 | 31908 ft | 369 kts | 285° |
| 2026-05-01 11:38 | 31.28053 | -103.83131 | 31896 ft | 369 kts | 285° |
| 2026-05-01 11:38 | 31.30137 | -103.88635 | 31892 ft | 371 kts | 285° |
| 2026-05-01 11:39 | 31.32221 | -103.94146 | 31883 ft | 376 kts | 285° |
| 2026-05-01 11:39 | 31.34334 | -103.99731 | 31877 ft | 374 kts | 285° |
| 2026-05-01 11:40 | 31.36429 | -104.05292 | 31874 ft | 374 kts | 285° |
| 2026-05-01 11:40 | 31.38516 | -104.10835 | 31875 ft | 374 kts | 285° |
| 2026-05-01 11:41 | 31.40614 | -104.16416 | 31871 ft | 374 kts | 285° |
| 2026-05-01 11:41 | 31.42706 | -104.21989 | 31895 ft | 374 kts | 286° |
| 2026-05-01 11:42 | 31.44800 | -104.27576 | 31882 ft | 374 kts | 285° |
| 2026-05-01 11:42 | 31.46879 | -104.33136 | 31881 ft | 375 kts | 285° |
| 2026-05-01 11:43 | 31.48973 | -104.38740 | 31880 ft | 375 kts | 285° |
| 2026-05-01 11:43 | 31.51062 | -104.44342 | 31879 ft | 374 kts | 285° |
| 2026-05-01 11:44 | 31.54186 | -104.52740 | 31878 ft | 376 kts | 286° |
| 2026-05-01 11:44 | 31.56279 | -104.58374 | 31876 ft | 376 kts | 286° |
| 2026-05-01 11:45 | 31.58368 | -104.64006 | 31876 ft | 376 kts | 286° |
| 2026-05-01 11:45 | 31.60455 | -104.69644 | 31878 ft | 377 kts | 286° |
| 2026-05-01 11:46 | 31.62541 | -104.75288 | 31879 ft | 377 kts | 286° |
| 2026-05-01 11:46 | 31.64626 | -104.80938 | 31880 ft | 377 kts | 286° |
| 2026-05-01 11:47 | 31.66695 | -104.86555 | 31880 ft | 377 kts | 286° |
| 2026-05-01 11:47 | 31.68773 | -104.92206 | 31892 ft | 377 kts | 286° |
| 2026-05-01 11:48 | 31.70856 | -104.97880 | 31892 ft | 378 kts | 287° |
| 2026-05-01 11:48 | 31.72938 | -105.03559 | 31890 ft | 381 kts | 287° |
| 2026-05-01 11:49 | 31.75157 | -105.09214 | 31896 ft | 384 kts | 296° |
| 2026-05-01 11:49 | 31.78663 | -105.13985 | 31890 ft | 391 kts | 309° |
| 2026-05-01 11:50 | 31.82471 | -105.18501 | 31891 ft | 386 kts | 304° |
| 2026-05-01 11:50 | 31.85977 | -105.23292 | 31890 ft | 387 kts | 306° |
| 2026-05-01 11:51 | 31.89634 | -105.27963 | 31893 ft | 387 kts | 305° |
| 2026-05-01 11:51 | 31.93131 | -105.32782 | 31900 ft | 384 kts | 297° |
| 2026-05-01 11:52 | 31.95149 | -105.38429 | 31897 ft | 375 kts | 276° |
| 2026-05-01 11:52 | 31.95379 | -105.41467 | 31891 ft | 372 kts | 265° |
| 2026-05-01 11:52 | 31.95093 | -105.44491 | 31891 ft | 371 kts | 257° |
| 2026-05-01 11:53 | 31.94082 | -105.50448 | 31881 ft | 372 kts | 258° |
| 2026-05-01 11:53 | 31.93768 | -105.56549 | 31884 ft | 375 kts | 270° |
| 2026-05-01 11:54 | 31.94113 | -105.62645 | 31884 ft | 374 kts | 268° |
| 2026-05-01 11:54 | 31.94143 | -105.68810 | 31878 ft | 380 kts | 268° |
| 2026-05-01 11:55 | 31.94299 | -105.75005 | 31872 ft | 378 kts | 269° |
| 2026-05-01 11:55 | 31.94402 | -105.81186 | 31862 ft | 377 kts | 268° |
| 2026-05-01 11:56 | 31.94519 | -105.87365 | 31861 ft | 377 kts | 269° |
| 2026-05-01 11:56 | 31.94628 | -105.93512 | 31859 ft | 377 kts | 269° |
| 2026-05-01 11:57 | 31.94717 | -105.98680 | 31865 ft | 377 kts | 269° |
| 2026-05-01 11:57 | 31.94840 | -106.05913 | 31893 ft | 380 kts | 269° |
| 2026-05-01 11:58 | 31.94940 | -106.12147 | 31909 ft | 380 kts | 269° |
| 2026-05-01 11:59 | 31.95081 | -106.21456 | 31937 ft | 380 kts | 269° |
| 2026-05-01 11:59 | 31.95246 | -106.27679 | 31957 ft | 381 kts | 275° |
| 2026-05-01 12:00 | 31.96651 | -106.33726 | 31964 ft | 383 kts | 287° |
| 2026-05-01 12:00 | 31.97564 | -106.36677 | 31962 ft | 384 kts | 287° |